Kerrick, Minnesota
Current Conditions -  °F | °C
As of 8:53 PM on Monday 22 Dec 2014 (Local Time) from KMZH Reporting Station
Haze Haze  
Wind Chill: 30°   Ceiling: 1200
Heat Index: 34°   Visibility: 4mi
Dew Point: 32°   Wind: 5mph
Humidity: 93%   Direction: 60°ENE
Pressure: 29.68"   Gusts: NA
Location:  46.34°N, 92.59°W
Report Text: KMZH 230253Z AUTO 06004KT 4SM BR SCT006 OVC012 01/00 A2968 RMK AO2
Loading
Personal Weather Stations






























Interactive Weather Map New forecast layout! Learn more

10-Day Weather Forecast

Advertisements
Track Severe Weather on mobile